Time;durP1;ratioP1;P1;durP2;ratioP2;P2;SDS_P1;SDS_P2;PMS_P1;PMS_P2;Temp;Humidity;BMP_temperature;BMP_pressure;BME280_temperature;BME280_humidity;BME280_pressure;Samples;Min_cycle;Max_cycle;Signal;HPM_P1;HPM_P2
2022/08/23 00:01:35;;;;;;;0.90;0.90;;;;;;;;;;5032478;28;20128;-68
2022/08/23 00:04:04;;;;;;;1.25;1.00;;;;;;;;;;5032137;28;20050;-68
2022/08/23 00:06:31;;;;;;;1.00;1.00;;;;;;;;;;5032499;28;20053;-68
2022/08/23 00:08:58;;;;;;;0.50;0.50;;;;;;;;;;5032477;28;20045;-68
2022/08/23 00:11:32;;;;;;;0.60;0.60;;;;;;;;;;5032438;28;20045;-68
2022/08/23 00:14:00;;;;;;;0.47;0.47;;;;;;;;;;5032499;28;20049;-68
2022/08/23 00:16:27;;;;;;;0.40;0.40;;;;;;;;;;5032182;28;20199;-68
2022/08/23 00:18:54;;;;;;;0.52;0.52;;;;;;;;;;5031929;28;20144;-68
2022/08/23 00:21:20;;;;;;;0.93;0.43;;;;;;;;;;5032223;28;20045;-68
2022/08/23 00:23:47;;;;;;;0.30;0.30;;;;;;;;;;5032084;28;20552;-68
2022/08/23 00:26:13;;;;;;;1.02;0.40;;;;;;;;;;5031748;28;20505;-69
2022/08/23 00:28:40;;;;;;;0.57;0.20;;;;;;;;;;5032212;28;20076;-69
2022/08/23 00:31:06;;;;;;;0.32;0.20;;;;;;;;;;5031931;28;20489;-68
2022/08/23 00:33:32;;;;;;;0.77;0.40;;;;;;;;;;5031978;28;20119;-68
2022/08/23 00:35:59;;;;;;;1.23;0.50;;;;;;;;;;5030658;28;20053;-68
2022/08/23 00:38:25;;;;;;;0.52;0.40;;;;;;;;;;5032014;28;20049;-68
2022/08/23 00:41:00;;;;;;;2.67;0.40;;;;;;;;;;5032092;28;20104;-68
2022/08/23 00:49:21;;;;;;;0.45;0.30;;;;;;;;;;5031696;28;20053;-68
2022/08/23 00:51:56;;;;;;;0.45;0.45;;;;;;;;;;5031723;28;20071;-68
2022/08/23 00:54:26;;;;;;;0.30;0.30;;;;;;;;;;5031512;28;20513;-69
2022/08/23 00:56:53;;;;;;;0.85;0.40;;;;;;;;;;5031540;28;20053;-69
2022/08/23 00:59:20;;;;;;;0.77;0.52;;;;;;;;;;5031714;28;20099;-69
2022/08/23 01:01:47;;;;;;;1.05;0.60;;;;;;;;;;5031712;28;20448;-68
2022/08/23 01:04:15;;;;;;;;;;;;;;;;;;5032079;28;20129;-69
2022/08/23 01:06:55;;;;;;;1.42;0.68;;;;;;;;;;5031731;28;19998;-69
2022/08/23 01:09:22;;;;;;;1.08;1.08;;;;;;;;;;5031541;28;20077;-69
2022/08/23 01:11:52;;;;;;;1.85;0.85;;;;;;;;;;5031666;28;20045;-68
2022/08/23 01:14:23;;;;;;;1.70;1.15;;;;;;;;;;5031774;28;20095;-69
2022/08/23 01:16:52;;;;;;;1.90;1.70;;;;;;;;;;5031285;28;20072;-69
2022/08/23 01:19:31;;;;;;;2.42;2.20;;;;;;;;;;5031005;28;20057;-69
2022/08/23 01:22:01;;;;;;;3.05;2.30;;;;;;;;;;5031310;28;20049;-68
2022/08/23 01:24:27;;;;;;;2.10;1.90;;;;;;;;;;5031106;28;20564;-69
2022/08/23 01:27:14;;;;;;;2.20;2.10;;;;;;;;;;5031343;28;20053;-68
2022/08/23 01:29:41;;;;;;;2.58;2.33;;;;;;;;;;5031504;28;20119;-69
2022/08/23 01:32:08;;;;;;;3.03;2.83;;;;;;;;;;5031614;28;20045;-69
2022/08/23 01:34:35;;;;;;;2.45;2.35;;;;;;;;;;5031130;28;20053;-69
2022/08/23 01:37:10;;;;;;;3.58;3.28;;;;;;;;;;5031256;28;20132;-69
2022/08/23 01:39:36;;;;;;;3.13;2.93;;;;;;;;;;5031237;28;20497;-68
2022/08/23 01:42:03;;;;;;;2.83;2.63;;;;;;;;;;5031597;28;20045;-68
2022/08/23 01:44:33;;;;;;;3.05;2.85;;;;;;;;;;5031000;28;20045;-68
2022/08/23 01:47:00;;;;;;;3.28;3.08;;;;;;;;;;5031071;28;20053;-68
2022/08/23 01:49:26;;;;;;;2.95;2.75;;;;;;;;;;5031133;28;20103;-67
2022/08/23 01:51:54;;;;;;;2.78;2.60;;;;;;;;;;5030976;28;20049;-68
2022/08/23 01:54:21;;;;;;;3.13;2.88;;;;;;;;;;5031289;28;20056;-69
2022/08/23 01:56:48;;;;;;;3.33;3.13;;;;;;;;;;5031085;28;20064;-69
2022/08/23 01:59:14;;;;;;;3.05;2.85;;;;;;;;;;5031183;28;20425;-69
2022/08/23 02:01:41;;;;;;;2.95;2.75;;;;;;;;;;5031172;28;20053;-69
2022/08/23 02:04:07;;;;;;;4.07;2.83;;;;;;;;;;5029884;28;20174;-69
2022/08/23 02:06:34;;;;;;;2.97;2.70;;;;;;;;;;5030787;28;20510;-68
2022/08/23 02:09:00;;;;;;;2.83;2.72;;;;;;;;;;5031864;28;20323;-69
2022/08/23 02:11:34;;;;;;;3.00;2.78;;;;;;;;;;5034677;28;20053;-69
2022/08/23 02:14:02;;;;;;;2.72;2.53;;;;;;;;;;5034648;28;20107;-69
2022/08/23 02:16:34;;;;;;;4.03;2.47;;;;;;;;;;5034289;28;20095;-69
2022/08/23 02:19:01;;;;;;;3.20;2.70;;;;;;;;;;5034199;28;20116;-69
2022/08/23 02:21:31;;;;;;;4.30;2.65;;;;;;;;;;5033226;28;20115;-69
2022/08/23 02:23:58;;;;;;;2.80;2.60;;;;;;;;;;5034470;28;20049;-69
2022/08/23 02:26:25;;;;;;;2.78;2.38;;;;;;;;;;5034003;28;20413;-68
2022/08/23 02:28:57;;;;;;;3.22;2.90;;;;;;;;;;5034247;28;20466;-69
2022/08/23 02:31:24;;;;;;;3.13;2.80;;;;;;;;;;5033906;28;20454;-68
2022/08/23 02:33:52;;;;;;;2.50;2.30;;;;;;;;;;5034262;28;20092;-68
2022/08/23 02:36:18;;;;;;;2.70;2.45;;;;;;;;;;5033843;28;20556;-69
2022/08/23 02:38:50;;;;;;;2.63;2.25;;;;;;;;;;5034315;28;20096;-68
2022/08/23 02:41:16;;;;;;;2.70;2.42;;;;;;;;;;5033912;28;20446;-68
2022/08/23 02:43:43;;;;;;;4.05;2.20;;;;;;;;;;5034022;28;20045;-68
2022/08/23 02:46:10;;;;;;;2.88;2.53;;;;;;;;;;5033680;28;20082;-68
2022/08/23 02:48:36;;;;;;;2.67;2.30;;;;;;;;;;5033636;28;20482;-68
2022/08/23 02:51:05;;;;;;;2.55;2.38;;;;;;;;;;5033740;28;20287;-68
2022/08/23 02:53:32;;;;;;;3.53;2.95;;;;;;;;;;5033527;28;20523;-69
2022/08/23 02:55:58;;;;;;;6.15;2.83;;;;;;;;;;5033881;28;20094;-68
2022/08/23 02:58:25;;;;;;;4.35;2.80;;;;;;;;;;5033670;28;20107;-69
2022/08/23 03:00:52;;;;;;;2.95;2.42;;;;;;;;;;5033960;28;20203;-69
2022/08/23 03:03:20;;;;;;;3.72;2.78;;;;;;;;;;5033427;28;20050;-69
2022/08/23 03:05:47;;;;;;;3.10;2.90;;;;;;;;;;5033415;28;20129;-69
2022/08/23 03:08:14;;;;;;;2.88;2.65;;;;;;;;;;5033682;28;20049;-69
2022/08/23 03:10:42;;;;;;;4.05;2.88;;;;;;;;;;5033589;28;20076;-69
2022/08/23 03:13:08;;;;;;;3.25;2.95;;;;;;;;;;5033220;28;20081;-69
2022/08/23 03:15:35;;;;;;;3.45;3.15;;;;;;;;;;5033561;28;20515;-69
2022/08/23 03:18:01;;;;;;;6.03;3.20;;;;;;;;;;5033202;28;20126;-69
2022/08/23 03:20:28;;;;;;;5.55;3.35;;;;;;;;;;5032380;28;20060;-69
2022/08/23 03:22:54;;;;;;;3.33;3.05;;;;;;;;;;5033268;28;20080;-68
2022/08/23 03:25:21;;;;;;;5.50;3.53;;;;;;;;;;5033030;28;20616;-68
2022/08/23 03:27:47;;;;;;;4.80;3.28;;;;;;;;;;5031986;28;20045;-69
2022/08/23 03:30:14;;;;;;;6.60;3.55;;;;;;;;;;5033114;28;20072;-69
2022/08/23 03:32:45;;;;;;;5.97;3.35;;;;;;;;;;5032039;28;20405;-69
2022/08/23 03:35:14;;;;;;;5.05;3.13;;;;;;;;;;5033011;28;20045;-69
2022/08/23 03:37:41;;;;;;;6.20;3.67;;;;;;;;;;5032940;28;20471;-68
2022/08/23 03:40:08;;;;;;;4.65;3.58;;;;;;;;;;5032821;28;20127;-68
2022/08/23 03:42:34;;;;;;;5.47;3.40;;;;;;;;;;5031889;28;20516;-68
2022/08/23 03:45:00;;;;;;;5.93;3.63;;;;;;;;;;5032509;28;20050;-69
2022/08/23 03:47:28;;;;;;;4.32;3.92;;;;;;;;;;5032623;28;20151;-68
2022/08/23 03:49:56;;;;;;;5.13;4.00;;;;;;;;;;5032784;28;20053;-68
2022/08/23 03:52:22;;;;;;;6.18;3.50;;;;;;;;;;5032764;28;20057;-68
2022/08/23 03:54:49;;;;;;;4.15;3.78;;;;;;;;;;5033071;28;20084;-68
2022/08/23 03:57:15;;;;;;;5.63;4.30;;;;;;;;;;5031437;28;20080;-68
2022/08/23 03:59:42;;;;;;;5.20;3.97;;;;;;;;;;5031180;28;20096;-68
2022/08/23 04:02:09;;;;;;;5.40;4.25;;;;;;;;;;5032430;28;20083;-68
2022/08/23 04:04:36;;;;;;;6.45;3.88;;;;;;;;;;5032596;28;20053;-68
2022/08/23 04:07:03;;;;;;;7.68;4.25;;;;;;;;;;5032386;28;20077;-68
2022/08/23 04:09:29;;;;;;;4.72;4.25;;;;;;;;;;5032494;28;20397;-68
2022/08/23 04:11:56;;;;;;;5.13;4.00;;;;;;;;;;5032327;28;20103;-68
2022/08/23 04:14:23;;;;;;;4.85;4.15;;;;;;;;;;5032062;28;20468;-68
2022/08/23 04:16:50;;;;;;;5.72;4.35;;;;;;;;;;5032114;28;20099;-69
2022/08/23 04:19:17;;;;;;;5.85;4.07;;;;;;;;;;5031875;28;20063;-69
2022/08/23 04:21:48;;;;;;;5.65;3.90;;;;;;;;;;5032059;28;20532;-69
2022/08/23 04:24:15;;;;;;;5.85;4.05;;;;;;;;;;5032164;28;20045;-69
2022/08/23 04:26:41;;;;;;;5.57;4.07;;;;;;;;;;5032302;28;20089;-69
2022/08/23 04:29:10;;;;;;;5.63;4.40;;;;;;;;;;5032060;28;20076;-69
2022/08/23 04:31:50;;;;;;;5.20;3.67;;;;;;;;;;5031889;28;20129;-69
2022/08/23 04:34:16;;;;;;;3.95;3.65;;;;;;;;;;5032005;28;20076;-69
2022/08/23 04:36:45;;;;;;;6.05;4.05;;;;;;;;;;5031993;28;20060;-69
2022/08/23 04:39:20;;;;;;;6.25;3.85;;;;;;;;;;5031645;28;20045;-69
2022/08/23 04:44:32;;;;;;;7.63;3.85;;;;;;;;;;5031962;28;20096;-69
2022/08/23 04:46:58;;;;;;;5.75;4.18;;;;;;;;;;5030374;28;20045;-69
2022/08/23 04:49:25;;;;;;;5.70;4.45;;;;;;;;;;5030594;28;20077;-69
2022/08/23 04:51:51;;;;;;;5.05;3.63;;;;;;;;;;5031816;28;20075;-69
2022/08/23 04:54:19;;;;;;;4.63;3.90;;;;;;;;;;5031904;28;20045;-69
2022/08/23 04:56:48;;;;;;;5.88;3.78;;;;;;;;;;5031770;28;20386;-69
2022/08/23 04:59:17;;;;;;;5.75;3.95;;;;;;;;;;5031765;28;20087;-68
2022/08/23 05:01:44;;;;;;;5.10;3.85;;;;;;;;;;5031762;28;20460;-69
2022/08/23 05:04:10;;;;;;;6.00;3.78;;;;;;;;;;5031597;28;20054;-69
2022/08/23 05:06:37;;;;;;;8.00;3.95;;;;;;;;;;5031344;28;20448;-69
2022/08/23 05:09:03;;;;;;;5.90;3.73;;;;;;;;;;5031656;28;20426;-69
2022/08/23 05:11:30;;;;;;;5.63;4.28;;;;;;;;;;5031333;28;20464;-69
2022/08/23 05:13:56;;;;;;;6.22;4.70;;;;;;;;;;5031956;28;20439;-69
2022/08/23 05:16:24;;;;;;;5.30;4.18;;;;;;;;;;5031646;28;20115;-69
2022/08/23 05:18:50;;;;;;;6.50;4.32;;;;;;;;;;5031132;28;20575;-69
2022/08/23 05:21:18;;;;;;;5.93;5.03;;;;;;;;;;5031648;28;20453;-69
2022/08/23 05:23:44;;;;;;;4.38;3.97;;;;;;;;;;5031231;28;20191;-69
2022/08/23 05:26:20;;;;;;;9.05;4.25;;;;;;;;;;5031526;28;20053;-69
2022/08/23 05:28:47;;;;;;;7.57;4.57;;;;;;;;;;5030070;28;20077;-69
2022/08/23 05:31:18;;;;;;;6.07;4.63;;;;;;;;;;5031307;28;20513;-69
2022/08/23 05:33:45;;;;;;;5.03;3.83;;;;;;;;;;5031362;28;20049;-69
2022/08/23 05:36:13;;;;;;;6.60;4.85;;;;;;;;;;5029944;28;20504;-69
2022/08/23 05:38:40;;;;;;;6.30;4.78;;;;;;;;;;5031490;28;20049;-69
2022/08/23 05:41:06;;;;;;;6.75;4.60;;;;;;;;;;5031030;28;20054;-69
2022/08/23 05:43:33;;;;;;;5.40;4.88;;;;;;;;;;5031483;28;20045;-68
2022/08/23 05:46:04;;;;;;;5.82;4.32;;;;;;;;;;5035125;28;20045;-69
2022/08/23 05:48:37;;;;;;;7.57;4.45;;;;;;;;;;5035239;28;20057;-69
2022/08/23 05:51:07;;;;;;;7.22;4.28;;;;;;;;;;5034732;28;20164;-69
2022/08/23 05:53:33;;;;;;;6.00;4.30;;;;;;;;;;5034742;28;20046;-69
2022/08/23 05:56:15;;;;;;;5.82;4.28;;;;;;;;;;5034997;28;20103;-69
2022/08/23 05:58:42;;;;;;;5.47;4.35;;;;;;;;;;5034679;28;20505;-69
2022/08/23 06:01:09;;;;;;;6.55;4.03;;;;;;;;;;5034727;28;20057;-69
2022/08/23 06:03:36;;;;;;;7.38;4.80;;;;;;;;;;5033463;28;20045;-69
2022/08/23 06:06:03;;;;;;;4.75;4.32;;;;;;;;;;5034643;28;20119;-69
2022/08/23 06:08:30;;;;;;;5.77;4.10;;;;;;;;;;5034938;28;20042;-69
2022/08/23 06:11:03;;;;;;;6.32;4.40;;;;;;;;;;5034624;28;20310;-69
2022/08/23 06:13:30;;;;;;;6.75;4.43;;;;;;;;;;5034490;28;20049;-69
2022/08/23 06:15:57;;;;;;;5.37;3.80;;;;;;;;;;5034404;28;20103;-69
2022/08/23 06:18:24;;;;;;;6.18;3.95;;;;;;;;;;5034161;28;20352;-69
2022/08/23 06:21:17;;;;;;;3.80;3.30;;;;;;;;;;5034508;28;20091;-69
2022/08/23 06:23:46;;;;;;;4.97;3.53;;;;;;;;;;5033804;28;20049;-69
2022/08/23 06:26:17;;;;;;;3.30;3.00;;;;;;;;;;5034381;28;20049;-69
2022/08/23 06:28:44;;;;;;;4.07;3.10;;;;;;;;;;5034061;28;20489;-69
2022/08/23 06:31:44;;;;;;;3.97;2.95;;;;;;;;;;5034156;28;20099;-69
2022/08/23 06:34:07;;;;;;;5.40;3.00;;;;;;;;;;5033905;28;20069;-69
2022/08/23 06:36:35;;;;;;;;;;;;;;;;;;5034724;28;20077;-69
2022/08/23 06:39:03;;;;;;;3.95;2.60;;;;;;;;;;5033867;28;20385;-69
2022/08/23 06:41:29;;;;;;;3.38;2.50;;;;;;;;;;5033734;28;20552;-69
2022/08/23 06:43:56;;;;;;;2.90;2.60;;;;;;;;;;5034503;28;20492;-69
2022/08/23 06:46:24;;;;;;;5.28;2.72;;;;;;;;;;5033216;28;20497;-68
2022/08/23 06:48:53;;;;;;;3.10;2.28;;;;;;;;;;5033490;28;20434;-68
2022/08/23 06:51:20;;;;;;;3.47;2.38;;;;;;;;;;5033994;28;20083;-68
2022/08/23 06:53:46;;;;;;;2.97;2.60;;;;;;;;;;5033985;28;20081;-68
2022/08/23 06:56:13;;;;;;;4.32;2.58;;;;;;;;;;5033123;28;20049;-68
2022/08/23 06:58:39;;;;;;;4.00;3.00;;;;;;;;;;5033527;28;20053;-68
2022/08/23 07:01:17;;;;;;;4.75;2.75;;;;;;;;;;5032206;28;20495;-68
2022/08/23 07:04:04;;;;;;;2.80;2.25;;;;;;;;;;5033294;28;20049;-67
2022/08/23 07:06:31;;;;;;;2.70;1.88;;;;;;;;;;5033202;28;20539;-68
2022/08/23 07:08:57;;;;;;;2.88;2.30;;;;;;;;;;5033775;28;20080;-67
2022/08/23 07:11:24;;;;;;;4.18;2.40;;;;;;;;;;5033182;28;20469;-68
2022/08/23 07:13:51;;;;;;;3.58;2.15;;;;;;;;;;5033218;28;20095;-68
2022/08/23 07:16:18;;;;;;;2.75;1.98;;;;;;;;;;5032485;28;20080;-68
2022/08/23 07:18:45;;;;;;;7.05;2.80;;;;;;;;;;5033087;28;20057;-68
2022/08/23 07:21:12;;;;;;;2.60;2.38;;;;;;;;;;5033470;28;20335;-66
2022/08/23 07:23:39;;;;;;;5.22;2.30;;;;;;;;;;5033006;28;20561;-68
2022/08/23 07:26:11;;;;;;;2.30;2.10;;;;;;;;;;5033045;28;20049;-68
2022/08/23 07:28:38;;;;;;;3.22;1.73;;;;;;;;;;5033071;28;20045;-68
2022/08/23 07:31:06;;;;;;;2.97;1.98;;;;;;;;;;5033003;28;20081;-67
2022/08/23 07:33:40;;;;;;;3.20;2.20;;;;;;;;;;5032543;28;20091;-68
2022/08/23 07:36:06;;;;;;;2.03;1.70;;;;;;;;;;5032598;28;20111;-66
2022/08/23 07:38:34;;;;;;;1.20;1.15;;;;;;;;;;5032576;28;20115;-67
2022/08/23 07:41:00;;;;;;;;;;;;;;;;;;5032530;28;20452;-66
2022/08/23 07:43:26;;;;;;;1.58;1.48;;;;;;;;;;5032372;28;20078;-67
2022/08/23 07:45:53;;;;;;;1.90;1.50;;;;;;;;;;5032565;28;20119;-67
2022/08/23 07:48:19;;;;;;;2.13;1.10;;;;;;;;;;5032976;28;20436;-67
2022/08/23 07:51:08;;;;;;;0.88;0.80;;;;;;;;;;5032247;28;20134;-68
2022/08/23 07:53:36;;;;;;;0.77;0.60;;;;;;;;;;5029168;28;20049;-68
2022/08/23 07:56:04;;;;;;;0.80;0.30;;;;;;;;;;5031169;28;20128;-67
2022/08/23 07:58:31;;;;;;;0.40;0.30;;;;;;;;;;5032733;28;20083;-68
2022/08/23 08:01:07;;;;;;;0.15;0.15;;;;;;;;;;5032100;28;20091;-67
2022/08/23 08:03:34;;;;;;;0.30;0.20;;;;;;;;;;5032483;28;20056;-67
2022/08/23 08:06:04;;;;;;;2.60;0.20;;;;;;;;;;5032275;28;20081;-68
2022/08/23 08:08:31;;;;;;;0.65;0.20;;;;;;;;;;5031862;28;20505;-67
2022/08/23 08:10:58;;;;;;;0.00;0.00;;;;;;;;;;5032406;28;20251;-67
2022/08/23 08:13:24;;;;;;;0.00;0.00;;;;;;;;;;5031665;28;20076;-68
2022/08/23 08:15:51;;;;;;;0.10;0.00;;;;;;;;;;5031196;28;20081;-68
2022/08/23 08:18:17;;;;;;;0.10;0.10;;;;;;;;;;5031757;28;20640;-68
2022/08/23 08:20:44;;;;;;;0.20;0.10;;;;;;;;;;5031421;28;20100;-68
2022/08/23 08:23:10;;;;;;;0.30;0.10;;;;;;;;;;5029966;28;20848;-68
2022/08/23 08:25:37;;;;;;;0.20;0.20;;;;;;;;;;5029708;28;20049;-67
2022/08/23 08:28:03;;;;;;;0.20;0.20;;;;;;;;;;5030562;28;20372;-68
2022/08/23 08:30:30;;;;;;;0.20;0.10;;;;;;;;;;5027425;28;20099;-68
2022/08/23 08:32:56;;;;;;;0.33;0.33;;;;;;;;;;5031727;28;20045;-68
2022/08/23 08:35:23;;;;;;;0.75;0.20;;;;;;;;;;5030813;28;20281;-68
2022/08/23 08:37:49;;;;;;;0.40;0.40;;;;;;;;;;5031290;28;20049;-69
2022/08/23 08:40:19;;;;;;;0.40;0.40;;;;;;;;;;5030761;28;20442;-69
2022/08/23 08:42:49;;;;;;;0.30;0.30;;;;;;;;;;5028892;28;20049;-68
2022/08/23 08:45:20;;;;;;;2.50;0.50;;;;;;;;;;5030187;28;20142;-69
2022/08/23 08:47:46;;;;;;;0.50;0.50;;;;;;;;;;5031256;28;20046;-69
2022/08/23 08:50:19;;;;;;;0.93;0.90;;;;;;;;;;5031371;28;20057;-69
2022/08/23 08:52:52;;;;;;;0.90;0.80;;;;;;;;;;5031569;28;20042;-69
2022/08/23 08:55:18;;;;;;;0.40;0.40;;;;;;;;;;5031292;28;20057;-69
2022/08/23 08:57:47;;;;;;;0.22;0.22;;;;;;;;;;5031565;28;20045;-69
2022/08/23 09:00:13;;;;;;;0.50;0.50;;;;;;;;;;5031547;28;20513;-69
2022/08/23 09:02:40;;;;;;;1.33;1.10;;;;;;;;;;5031500;28;20076;-68
2022/08/23 09:05:30;;;;;;;1.20;0.90;;;;;;;;;;5027508;28;20418;-66
2022/08/23 09:08:19;;;;;;;1.17;1.17;;;;;;;;;;5030638;28;20050;-69
2022/08/23 09:11:03;;;;;;;0.80;0.80;;;;;;;;;;5030946;28;20087;-69
2022/08/23 09:13:52;;;;;;;0.93;0.85;;;;;;;;;;5030870;28;20072;-69
2022/08/23 09:16:18;;;;;;;1.52;1.40;;;;;;;;;;5029604;28;20489;-68
2022/08/23 09:18:45;;;;;;;1.02;1.00;;;;;;;;;;5032869;28;20053;-68
2022/08/23 09:21:13;;;;;;;1.23;1.13;;;;;;;;;;5034641;28;20572;-68
2022/08/23 09:23:45;;;;;;;1.08;1.08;;;;;;;;;;5034869;28;20123;-69
2022/08/23 09:26:21;;;;;;;1.38;1.08;;;;;;;;;;5034986;28;20099;-68
2022/08/23 09:28:49;;;;;;;0.95;0.70;;;;;;;;;;5034818;28;20045;-68
2022/08/23 09:31:36;;;;;;;0.80;0.70;;;;;;;;;;5034714;28;20100;-68
2022/08/23 09:34:02;;;;;;;0.82;0.75;;;;;;;;;;5033305;28;20136;-68
2022/08/23 09:36:34;;;;;;;0.60;0.60;;;;;;;;;;5029372;28;20346;-69
2022/08/23 09:39:03;;;;;;;0.70;0.70;;;;;;;;;;5032402;28;20045;-68
2022/08/23 09:41:35;;;;;;;0.65;0.52;;;;;;;;;;5033278;28;20120;-68
2022/08/23 09:44:03;;;;;;;1.05;1.05;;;;;;;;;;5033567;28;20444;-70
2022/08/23 09:46:34;;;;;;;2.30;2.10;;;;;;;;;;5034981;28;20053;-69
2022/08/23 09:49:19;;;;;;;2.22;1.40;;;;;;;;;;5033400;28;20049;-70
2022/08/23 09:51:47;;;;;;;1.23;1.23;;;;;;;;;;5034747;28;20472;-67
2022/08/23 09:54:21;;;;;;;1.13;1.13;;;;;;;;;;5034475;28;20137;-67
2022/08/23 09:56:53;;;;;;;1.10;1.10;;;;;;;;;;5033914;28;20448;-68
2022/08/23 09:59:25;;;;;;;1.20;1.10;;;;;;;;;;5033327;28;20091;-68
2022/08/23 10:01:54;;;;;;;0.80;0.80;;;;;;;;;;5034298;28;20053;-69
2022/08/23 10:04:23;;;;;;;0.80;0.80;;;;;;;;;;5033817;28;20057;-67
2022/08/23 10:06:50;;;;;;;1.88;0.80;;;;;;;;;;5034135;28;20077;-67
2022/08/23 10:09:24;;;;;;;1.30;0.77;;;;;;;;;;5032803;28;20493;-67
2022/08/23 10:11:51;;;;;;;0.73;0.73;;;;;;;;;;5031673;28;20085;-69
2022/08/23 10:14:19;;;;;;;0.50;0.50;;;;;;;;;;5033253;28;20045;-69
2022/08/23 10:16:52;;;;;;;0.52;0.52;;;;;;;;;;5033315;28;20041;-69
2022/08/23 10:19:19;;;;;;;0.40;0.40;;;;;;;;;;5032794;28;20446;-69
2022/08/23 10:21:46;;;;;;;0.28;0.28;;;;;;;;;;5034199;28;20099;-69
2022/08/23 10:24:15;;;;;;;0.30;0.28;;;;;;;;;;5034035;28;20050;-69
2022/08/23 10:26:50;;;;;;;0.47;0.20;;;;;;;;;;5034344;28;20092;-68
2022/08/23 10:29:37;;;;;;;1.20;0.40;;;;;;;;;;5034160;28;20073;-68
2022/08/23 10:32:10;;;;;;;0.20;0.20;;;;;;;;;;5034546;28;20078;-68
2022/08/23 10:34:39;;;;;;;0.20;0.20;;;;;;;;;;5034068;28;20482;-68
2022/08/23 10:37:21;;;;;;;0.30;0.30;;;;;;;;;;5034148;28;20092;-68
2022/08/23 10:39:55;;;;;;;0.75;0.25;;;;;;;;;;5033845;28;20489;-69
2022/08/23 10:42:28;;;;;;;0.30;0.30;;;;;;;;;;5033063;28;20061;-67
2022/08/23 10:45:15;;;;;;;0.32;0.20;;;;;;;;;;5032064;28;20057;-69
2022/08/23 10:47:48;;;;;;;0.40;0.40;;;;;;;;;;5031157;28;20073;-68
2022/08/23 10:50:19;;;;;;;0.30;0.30;;;;;;;;;;5033671;28;20041;-69
2022/08/23 10:53:06;;;;;;;0.40;0.40;;;;;;;;;;5033703;28;20053;-70
2022/08/23 10:55:53;;;;;;;;;;;;;;;;;;5033518;28;20438;-69
2022/08/23 10:58:22;;;;;;;0.50;0.50;;;;;;;;;;5033759;28;19921;-70
2022/08/23 11:00:50;;;;;;;0.40;0.40;;;;;;;;;;5032954;28;20460;-70
2022/08/23 11:03:19;;;;;;;0.43;0.43;;;;;;;;;;5032875;28;20111;-70
2022/08/23 11:06:09;;;;;;;0.68;0.40;;;;;;;;;;5033004;28;20054;-70
2022/08/23 11:08:42;;;;;;;0.98;0.30;;;;;;;;;;5032831;28;20057;-70
2022/08/23 11:11:31;;;;;;;0.28;0.25;;;;;;;;;;5033060;28;20080;-70
2022/08/23 11:13:58;;;;;;;0.65;0.30;;;;;;;;;;5032937;28;20053;-70
2022/08/23 11:16:28;;;;;;;0.40;0.35;;;;;;;;;;5032617;28;20081;-70
2022/08/23 11:18:55;;;;;;;0.38;0.30;;;;;;;;;;5031354;28;20058;-71
2022/08/23 11:21:22;;;;;;;;;;;;;;;;;;5033339;28;20131;-70
2022/08/23 11:23:48;;;;;;;2.10;0.50;;;;;;;;;;5032329;28;19947;-69
2022/08/23 11:26:21;;;;;;;0.40;0.30;;;;;;;;;;5032775;28;20053;-69
2022/08/23 11:28:49;;;;;;;1.17;0.73;;;;;;;;;;5032784;28;20110;-70
2022/08/23 11:31:26;;;;;;;0.40;0.40;;;;;;;;;;5032118;28;20552;-67
2022/08/23 11:33:58;;;;;;;0.40;0.40;;;;;;;;;;5031182;28;20501;-69
2022/08/23 11:36:26;;;;;;;0.85;0.40;;;;;;;;;;5032531;28;20049;-70
2022/08/23 11:38:54;;;;;;;0.93;0.60;;;;;;;;;;5032418;28;20049;-70
2022/08/23 11:41:28;;;;;;;0.50;0.50;;;;;;;;;;5030610;28;20072;-70
2022/08/23 11:43:55;;;;;;;0.47;0.47;;;;;;;;;;5032384;28;20057;-70
2022/08/23 11:46:21;;;;;;;0.77;0.40;;;;;;;;;;5032501;28;20493;-69
2022/08/23 11:49:08;;;;;;;0.45;0.20;;;;;;;;;;5029999;28;20664;-69
2022/08/23 11:51:37;;;;;;;0.50;0.50;;;;;;;;;;5030680;28;20498;-70
2022/08/23 11:54:38;;;;;;;0.40;0.38;;;;;;;;;;5032230;28;20405;-70
2022/08/23 11:57:04;;;;;;;0.50;0.50;;;;;;;;;;5030561;28;20071;-74
2022/08/23 11:59:42;;;;;;;1.10;0.52;;;;;;;;;;5031778;28;20045;-70
2022/08/23 12:02:30;;;;;;;0.47;0.40;;;;;;;;;;5031950;28;20131;-70
2022/08/23 12:04:59;;;;;;;0.70;0.40;;;;;;;;;;5031791;28;20107;-70
2022/08/23 12:07:46;;;;;;;0.45;0.45;;;;;;;;;;5031892;28;20096;-70
2022/08/23 12:10:21;;;;;;;0.50;0.50;;;;;;;;;;5030371;28;20134;-70
2022/08/23 12:13:07;;;;;;;0.90;0.40;;;;;;;;;;5031920;28;20049;-70
2022/08/23 12:16:00;;;;;;;5.32;0.90;;;;;;;;;;5031245;28;20045;-70
2022/08/23 12:18:29;;;;;;;0.30;0.30;;;;;;;;;;5023315;28;20107;-70
2022/08/23 12:20:57;;;;;;;0.30;0.30;;;;;;;;;;5031648;28;20422;-70
2022/08/23 12:23:23;;;;;;;0.85;0.60;;;;;;;;;;5030935;28;20077;-70
2022/08/23 12:25:58;;;;;;;1.02;0.68;;;;;;;;;;5029163;28;20555;-71
2022/08/23 12:28:44;;;;;;;0.60;0.60;;;;;;;;;;5031776;28;20038;-71
2022/08/23 12:31:19;;;;;;;1.40;0.30;;;;;;;;;;5031578;28;20069;-71
2022/08/23 12:33:51;;;;;;;0.43;0.43;;;;;;;;;;5032175;28;20212;-72
2022/08/23 12:36:47;;;;;;;1.30;0.60;;;;;;;;;;5031970;28;20099;-71
2022/08/23 12:39:21;;;;;;;1.20;0.70;;;;;;;;;;5031195;28;20072;-70
2022/08/23 12:41:57;;;;;;;0.40;0.40;;;;;;;;;;5032055;28;20041;-70
2022/08/23 12:44:26;;;;;;;0.40;0.40;;;;;;;;;;5031819;28;20053;-70
2022/08/23 12:46:52;;;;;;;1.15;0.70;;;;;;;;;;5031584;28;20073;-70
2022/08/23 12:49:19;;;;;;;;;;;;;;;;;;5031985;28;20474;-71
2022/08/23 12:51:45;;;;;;;;;;;;;;;;;;5031901;28;19925;-71
2022/08/23 12:54:16;;;;;;;0.85;0.50;;;;;;;;;;5030247;28;19979;-71
2022/08/23 12:56:46;;;;;;;0.65;0.60;;;;;;;;;;5031535;28;20049;-71
2022/08/23 12:59:25;;;;;;;1.30;0.40;;;;;;;;;;5031835;28;20057;-71
2022/08/23 13:01:52;;;;;;;0.38;0.30;;;;;;;;;;5031420;28;20505;-71
2022/08/23 13:04:19;;;;;;;0.45;0.40;;;;;;;;;;5031539;28;20054;-71
2022/08/23 13:06:49;;;;;;;1.63;0.45;;;;;;;;;;5031500;28;20061;-71
2022/08/23 13:09:15;;;;;;;1.05;0.47;;;;;;;;;;5031365;28;20100;-71
2022/08/23 13:11:42;;;;;;;1.33;0.60;;;;;;;;;;5031675;28;20045;-71
2022/08/23 13:14:21;;;;;;;0.68;0.68;;;;;;;;;;5031662;28;20045;-71
2022/08/23 13:16:49;;;;;;;1.38;0.60;;;;;;;;;;5031427;28;20054;-71
2022/08/23 13:19:18;;;;;;;0.50;0.50;;;;;;;;;;5031164;28;20057;-71
2022/08/23 13:21:44;;;;;;;0.85;0.73;;;;;;;;;;5031276;28;20053;-71
2022/08/23 13:24:10;;;;;;;;;;;;;;;;;;5031659;28;20049;-71
2022/08/23 13:26:37;;;;;;;;;;;;;;;;;;5030241;28;19965;-71
2022/08/23 13:29:03;;;;;;;;;;;;;;;;;;5031730;28;20423;-71
2022/08/23 13:31:29;;;;;;;;;;;;;;;;;;5031968;28;20046;-71
2022/08/23 13:33:56;;;;;;;0.88;0.45;;;;;;;;;;5031193;28;19929;-71
2022/08/23 13:36:22;;;;;;;0.70;0.50;;;;;;;;;;5031591;28;20076;-71
2022/08/23 13:38:49;;;;;;;;;;;;;;;;;;5031851;28;20049;-71
2022/08/23 13:41:28;;;;;;;0.60;0.60;;;;;;;;;;5031322;28;19975;-71
2022/08/23 13:43:54;;;;;;;0.70;0.70;;;;;;;;;;5031432;28;20084;-71
2022/08/23 13:46:22;;;;;;;0.65;0.63;;;;;;;;;;5031056;28;20046;-71
2022/08/23 13:48:49;;;;;;;1.80;0.70;;;;;;;;;;5031539;28;20045;-71
2022/08/23 13:51:23;;;;;;;0.80;0.80;;;;;;;;;;5031322;28;20045;-71
2022/08/23 13:53:49;;;;;;;0.77;0.70;;;;;;;;;;5031397;28;20103;-71
2022/08/23 13:56:15;;;;;;;;;;;;;;;;;;5031550;28;20042;-71
2022/08/23 13:58:42;;;;;;;;;;;;;;;;;;5031515;28;19956;-71
2022/08/23 14:01:08;;;;;;;;;;;;;;;;;;5031594;28;19924;-71
2022/08/23 14:03:34;;;;;;;;;;;;;;;;;;5031593;28;19995;-70
2022/08/23 14:06:01;;;;;;;;;;;;;;;;;;5033998;28;19929;-71
2022/08/23 14:08:27;;;;;;;;;;;;;;;;;;5034898;28;20301;-71
2022/08/23 14:10:54;;;;;;;0.63;0.50;;;;;;;;;;5034547;28;20434;-71
2022/08/23 14:13:20;;;;;;;;;;;;;;;;;;5035129;28;20095;-71
2022/08/23 14:15:48;;;;;;;0.63;0.63;;;;;;;;;;5034872;28;19920;-70
2022/08/23 14:18:24;;;;;;;0.43;0.43;;;;;;;;;;5030883;28;20045;-70
2022/08/23 14:20:50;;;;;;;0.60;0.60;;;;;;;;;;5033934;28;20045;-70
2022/08/23 14:23:17;;;;;;;1.48;0.70;;;;;;;;;;5034510;28;20057;-70
2022/08/23 14:25:44;;;;;;;0.63;0.63;;;;;;;;;;5034508;28;20454;-70
2022/08/23 14:28:11;;;;;;;;;;;;;;;;;;5034845;28;20053;-70
2022/08/23 14:30:38;;;;;;;1.58;0.80;;;;;;;;;;5034354;28;19925;-70
2022/08/23 14:33:04;;;;;;;0.68;0.60;;;;;;;;;;5034467;28;20050;-70
2022/08/23 14:35:31;;;;;;;1.73;0.65;;;;;;;;;;5034242;28;20049;-70
2022/08/23 14:37:58;;;;;;;0.77;0.70;;;;;;;;;;5034376;28;20050;-70
2022/08/23 14:40:29;;;;;;;1.52;0.88;;;;;;;;;;5033902;28;20056;-70
2022/08/23 14:42:55;;;;;;;1.20;0.88;;;;;;;;;;5033923;28;20079;-70
2022/08/23 14:45:22;;;;;;;1.83;0.90;;;;;;;;;;5033916;28;20056;-70
2022/08/23 14:47:48;;;;;;;1.55;0.85;;;;;;;;;;5032773;28;20095;-70
2022/08/23 14:50:15;;;;;;;0.75;0.75;;;;;;;;;;5033805;28;20072;-70
2022/08/23 14:52:43;;;;;;;0.90;0.50;;;;;;;;;;5033772;28;20567;-70
2022/08/23 14:55:11;;;;;;;1.38;0.75;;;;;;;;;;5033709;28;20072;-70
2022/08/23 14:57:38;;;;;;;1.10;0.75;;;;;;;;;;5034150;28;20065;-70
2022/08/23 15:00:06;;;;;;;1.40;0.60;;;;;;;;;;5033504;28;20430;-70
2022/08/23 15:02:35;;;;;;;1.42;0.68;;;;;;;;;;5033890;28;20050;-70
2022/08/23 15:05:02;;;;;;;0.80;0.80;;;;;;;;;;5033503;28;20373;-71
2022/08/23 15:07:28;;;;;;;;;;;;;;;;;;5033926;28;20077;-70
2022/08/23 15:09:55;;;;;;;0.75;0.70;;;;;;;;;;5033307;28;20283;-70
2022/08/23 15:12:22;;;;;;;1.85;0.93;;;;;;;;;;5033695;28;20457;-70
2022/08/23 15:15:12;;;;;;;1.00;0.70;;;;;;;;;;5032040;28;20050;-70